Time;durP1;ratioP1;P1;durP2;ratioP2;P2;SDS_P1;SDS_P2;PMS_P1;PMS_P2;Temp;Humidity;BMP_temperature;BMP_pressure;BME280_temperature;BME280_humidity;BME280_pressure;Samples;Min_cycle;Max_cycle;Signal;HPM_P1;HPM_P2
2022/01/09 00:00:19;;;;;;;5.83;4.23;;;0.90;99.90;;;;;;5021025;28;20188;-63
2022/01/09 00:02:45;;;;;;;8.47;4.23;;;0.80;99.90;;;;;;5020708;28;20228;-63
2022/01/09 00:05:12;;;;;;;7.50;4.20;;;0.80;99.90;;;;;;5025526;28;20211;-64
2022/01/09 00:07:38;;;;;;;5.30;3.60;;;0.80;99.90;;;;;;5020906;28;20195;-68
2022/01/09 00:10:05;;;;;;;4.73;3.30;;;0.80;99.90;;;;;;5022883;28;20173;-65
2022/01/09 00:12:31;;;;;;;8.40;4.33;;;0.80;99.90;;;;;;5026837;28;20283;-64
2022/01/09 00:14:56;;;;;;;5.17;3.77;;;0.90;99.90;;;;;;5024671;28;20604;-64
2022/01/09 00:17:22;;;;;;;4.80;3.33;;;0.80;99.90;;;;;;5017553;28;20301;-66
2022/01/09 00:19:48;;;;;;;5.13;3.57;;;0.80;99.90;;;;;;5015878;28;20669;-63
2022/01/09 00:22:15;;;;;;;5.23;3.57;;;1.00;99.90;;;;;;5016618;28;20189;-65
2022/01/09 00:24:41;;;;;;;5.40;3.60;;;0.90;99.90;;;;;;5019988;28;20244;-64
2022/01/09 00:27:07;;;;;;;8.03;4.03;;;0.90;99.90;;;;;;5019176;28;20309;-63
2022/01/09 00:29:32;;;;;;;9.07;3.77;;;0.90;99.90;;;;;;5020491;28;20219;-63
2022/01/09 00:31:58;;;;;;;5.47;3.53;;;0.90;99.90;;;;;;5022111;28;20189;-63
2022/01/09 00:34:23;;;;;;;7.20;3.20;;;0.90;99.90;;;;;;5021984;28;20240;-64
2022/01/09 00:36:49;;;;;;;7.27;3.60;;;0.90;99.90;;;;;;5022195;28;20402;-64
2022/01/09 00:39:15;;;;;;;6.60;3.83;;;0.90;99.90;;;;;;5024912;28;20236;-63
2022/01/09 00:41:41;;;;;;;8.40;3.73;;;0.90;99.90;;;;;;5026231;28;20191;-64
2022/01/09 00:44:07;;;;;;;6.33;3.53;;;0.90;99.90;;;;;;5028915;28;20216;-68
2022/01/09 00:46:33;;;;;;;5.17;3.20;;;1.00;99.90;;;;;;5030343;28;20195;-65
2022/01/09 00:49:00;;;;;;;6.20;3.80;;;0.90;99.90;;;;;;5031296;28;20192;-64
2022/01/09 00:51:26;;;;;;;7.73;4.10;;;0.90;99.90;;;;;;5026696;28;20188;-64
2022/01/09 00:53:51;;;;;;;9.33;3.97;;;0.90;99.90;;;;;;5023849;28;20192;-64
2022/01/09 00:56:17;;;;;;;6.03;4.20;;;0.80;99.90;;;;;;5018308;28;20720;-65
2022/01/09 00:58:43;;;;;;;5.57;4.07;;;0.90;99.90;;;;;;5022950;28;20747;-67
2022/01/09 01:01:08;;;;;;;8.60;4.50;;;0.80;99.90;;;;;;5028189;28;21153;-64
2022/01/09 01:03:34;;;;;;;7.03;4.30;;;0.80;99.90;;;;;;5021919;28;20224;-67
2022/01/09 01:06:00;;;;;;;6.47;3.80;;;0.80;99.90;;;;;;5023159;28;20200;-63
2022/01/09 01:08:25;;;;;;;6.40;4.27;;;0.80;99.90;;;;;;5024411;28;20593;-72
2022/01/09 01:10:51;;;;;;;8.33;4.17;;;0.70;99.90;;;;;;5028076;28;20188;-64
2022/01/09 01:13:17;;;;;;;5.70;4.47;;;0.70;99.90;;;;;;5032340;28;20256;-66
2022/01/09 01:15:42;;;;;;;6.67;5.03;;;0.80;99.90;;;;;;5027937;28;20268;-64
2022/01/09 01:18:08;;;;;;;7.83;4.43;;;0.80;99.90;;;;;;5027577;28;20227;-64
2022/01/09 01:20:34;;;;;;;8.37;4.03;;;0.70;99.90;;;;;;5021253;28;20185;-63
2022/01/09 01:22:59;;;;;;;6.00;3.90;;;0.80;99.90;;;;;;5020873;28;20256;-64
2022/01/09 01:25:26;;;;;;;5.20;4.10;;;0.80;99.90;;;;;;5035833;28;20208;-65
2022/01/09 01:27:52;;;;;;;8.40;4.67;;;0.80;99.90;;;;;;5018572;28;20204;-65
2022/01/09 01:30:18;;;;;;;7.37;4.83;;;0.80;99.90;;;;;;5020957;28;20177;-66
2022/01/09 01:32:43;;;;;;;7.27;4.23;;;0.80;99.90;;;;;;5020666;28;20536;-65
2022/01/09 01:35:10;;;;;;;6.13;3.80;;;0.80;99.90;;;;;;5021791;28;20271;-64
2022/01/09 01:37:41;;;;;;;8.57;3.83;;;0.80;99.90;;;;;;5023468;28;20632;-63
2022/01/09 01:40:09;;;;;;;8.73;4.20;;;0.80;99.90;;;;;;5019628;28;20178;-66
2022/01/09 01:42:34;;;;;;;4.80;3.83;;;0.80;99.90;;;;;;5022006;28;20212;-67
2022/01/09 01:45:00;;;;;;;7.20;3.73;;;0.70;99.90;;;;;;5022736;28;20195;-64
2022/01/09 01:47:26;;;;;;;7.17;3.80;;;0.70;99.90;;;;;;5020918;28;20666;-63
2022/01/09 01:49:52;;;;;;;7.47;4.33;;;0.70;99.90;;;;;;5022202;28;20187;-70
2022/01/09 01:52:27;;;;;;;7.00;3.30;;;0.70;99.90;;;;;;5022219;28;20187;-64
2022/01/09 01:54:52;;;;;;;8.90;4.10;;;0.80;99.90;;;;;;5017984;28;20526;-63
2022/01/09 01:57:18;;;;;;;4.67;3.33;;;0.80;99.90;;;;;;5022864;28;20236;-65
2022/01/09 01:59:44;;;;;;;8.77;4.17;;;0.70;99.90;;;;;;5023912;28;20199;-63
2022/01/09 02:02:09;;;;;;;5.50;3.70;;;0.80;99.90;;;;;;5021585;28;20243;-64
2022/01/09 02:04:36;;;;;;;5.33;3.73;;;0.80;99.90;;;;;;5022783;28;20216;-63
2022/01/09 02:07:03;;;;;;;6.87;3.53;;;0.80;99.90;;;;;;5017896;28;20559;-64
2022/01/09 02:09:29;;;;;;;7.00;3.83;;;0.80;99.90;;;;;;5019222;28;20658;-65
2022/01/09 02:11:55;;;;;;;4.17;3.57;;;0.90;99.90;;;;;;5021814;28;20648;-65
2022/01/09 02:14:21;;;;;;;5.53;3.23;;;0.80;99.90;;;;;;5021350;28;20201;-67
2022/01/09 02:16:51;;;;;;;7.87;3.10;;;0.80;99.90;;;;;;5019055;28;20247;-65
2022/01/09 02:19:19;;;;;;;4.70;3.20;;;0.80;99.90;;;;;;5020968;28;20173;-64
2022/01/09 02:21:45;;;;;;;10.03;3.37;;;0.90;99.90;;;;;;5020102;28;20190;-66
2022/01/09 02:24:12;;;;;;;5.83;3.17;;;0.90;99.90;;;;;;5022247;28;20205;-65
2022/01/09 02:26:37;;;;;;;5.00;3.40;;;0.90;99.90;;;;;;5020110;28;20205;-67
2022/01/09 02:29:05;;;;;;;4.90;2.83;;;1.00;99.90;;;;;;5020384;28;20649;-68
2022/01/09 02:31:34;;;;;;;5.20;3.23;;;1.10;99.90;;;;;;5017534;28;20276;-65
2022/01/09 02:34:00;;;;;;;6.67;3.47;;;1.00;99.90;;;;;;5020403;28;20192;-63
2022/01/09 02:36:26;;;;;;;6.17;3.27;;;1.00;99.90;;;;;;5030019;28;20327;-65
2022/01/09 02:38:52;;;;;;;4.83;3.50;;;1.10;99.90;;;;;;5027865;28;20734;-63
2022/01/09 02:41:18;;;;;;;5.40;3.23;;;1.10;99.90;;;;;;5021425;28;20188;-64
2022/01/09 02:43:44;;;;;;;6.97;3.53;;;1.10;99.90;;;;;;5018048;28;20394;-64
2022/01/09 02:46:17;;;;;;;6.80;3.23;;;1.10;99.90;;;;;;5016824;28;20200;-63
2022/01/09 02:48:44;;;;;;;4.93;3.07;;;1.10;99.90;;;;;;5020498;28;20193;-63
2022/01/09 02:51:14;;;;;;;4.50;3.10;;;1.10;99.90;;;;;;5018901;28;20178;-66
2022/01/09 02:53:44;;;;;;;6.20;3.57;;;1.10;99.90;;;;;;5020685;28;20547;-64
2022/01/09 02:56:10;;;;;;;6.63;3.60;;;1.10;99.90;;;;;;5018945;28;20667;-64
2022/01/09 02:58:37;;;;;;;6.10;2.90;;;1.00;99.90;;;;;;5019586;28;20181;-64
2022/01/09 03:01:06;;;;;;;7.73;3.57;;;1.10;99.90;;;;;;5016837;28;20185;-65
2022/01/09 03:03:32;;;;;;;3.93;3.10;;;1.10;99.90;;;;;;5020425;28;20215;-64
2022/01/09 03:05:57;;;;;;;6.80;4.03;;;1.10;99.90;;;;;;5019307;28;20197;-66
2022/01/09 03:08:23;;;;;;;4.13;2.93;;;1.20;99.90;;;;;;5020666;28;20240;-63
2022/01/09 03:10:49;;;;;;;5.80;3.53;;;1.10;99.90;;;;;;5019298;28;20189;-66
2022/01/09 03:13:14;;;;;;;4.23;3.00;;;1.10;99.90;;;;;;5020714;28;20253;-65
2022/01/09 03:15:40;;;;;;;6.30;3.50;;;1.10;99.90;;;;;;5018692;28;20248;-67
2022/01/09 03:18:06;;;;;;;7.33;3.57;;;1.10;99.90;;;;;;5016862;28;20307;-64
2022/01/09 03:20:31;;;;;;;3.70;2.80;;;1.20;99.90;;;;;;5018731;28;20186;-63
2022/01/09 03:22:57;;;;;;;5.60;3.43;;;1.20;99.90;;;;;;5019072;28;20216;-66
2022/01/09 03:25:24;;;;;;;3.90;2.93;;;1.20;99.90;;;;;;5018311;28;20192;-67
2022/01/09 03:27:51;;;;;;;3.27;2.70;;;1.20;99.90;;;;;;5019824;28;20194;-63
2022/01/09 03:30:21;;;;;;;5.77;3.50;;;1.20;99.90;;;;;;5021885;28;20625;-63
2022/01/09 03:32:48;;;;;;;6.20;3.20;;;1.20;99.90;;;;;;5021795;28;20657;-66
2022/01/09 03:35:16;;;;;;;11.03;3.37;;;1.20;99.90;;;;;;5018516;28;20228;-63
2022/01/09 03:37:44;;;;;;;4.97;2.80;;;1.10;99.90;;;;;;5017729;28;20181;-66
2022/01/09 03:40:13;;;;;;;5.83;3.77;;;1.20;99.90;;;;;;5021056;28;20184;-64
2022/01/09 03:42:39;;;;;;;3.67;3.23;;;1.20;99.90;;;;;;5020975;28;20220;-66
2022/01/09 03:45:07;;;;;;;5.67;2.70;;;1.20;99.90;;;;;;5025066;28;20185;-68
2022/01/09 03:47:35;;;;;;;5.53;3.20;;;1.20;99.90;;;;;;5025112;28;20190;-64
2022/01/09 03:50:02;;;;;;;7.47;3.40;;;1.20;99.90;;;;;;5025352;28;20601;-63
2022/01/09 03:52:28;;;;;;;5.87;3.30;;;1.30;99.90;;;;;;5020299;28;20199;-67
2022/01/09 03:54:56;;;;;;;9.27;3.53;;;1.10;99.90;;;;;;5019765;28;20267;-66
2022/01/09 03:57:22;;;;;;;6.10;3.63;;;1.10;99.90;;;;;;5018332;28;20182;-64
2022/01/09 03:59:48;;;;;;;6.33;2.77;;;1.20;99.90;;;;;;5018821;28;20267;-69
2022/01/09 04:02:14;;;;;;;4.43;3.10;;;1.10;99.90;;;;;;5023726;28;20259;-68
2022/01/09 04:04:39;;;;;;;4.83;2.93;;;1.20;99.90;;;;;;5025157;28;20208;-65
2022/01/09 04:07:05;;;;;;;5.83;2.93;;;1.20;99.90;;;;;;5017385;28;20806;-68
2022/01/09 04:09:41;;;;;;;4.67;3.03;;;1.20;99.90;;;;;;5019682;28;20192;-69
2022/01/09 04:12:18;;;;;;;4.20;3.00;;;1.20;99.90;;;;;;5019397;28;20184;-64
2022/01/09 04:14:46;;;;;;;4.80;3.13;;;1.20;99.90;;;;;;5017349;28;20173;-63
2022/01/09 04:17:34;;;;;;;6.33;3.07;;;1.20;99.90;;;;;;5018420;28;20185;-62
2022/01/09 04:19:59;;;;;;;6.73;2.90;;;1.20;99.90;;;;;;5016594;28;20196;-67
2022/01/09 04:22:24;;;;;;;7.37;2.97;;;1.20;99.90;;;;;;5020149;28;20204;-63
2022/01/09 04:24:50;;;;;;;3.07;2.70;;;1.20;99.90;;;;;;5019859;28;20222;-64
2022/01/09 04:27:16;;;;;;;5.00;3.00;;;1.20;99.90;;;;;;5018739;28;20646;-63
2022/01/09 04:29:41;;;;;;;5.97;3.00;;;1.20;99.90;;;;;;5020040;28;20193;-64
2022/01/09 04:32:07;;;;;;;4.23;2.70;;;1.20;99.90;;;;;;5018989;28;20219;-68
2022/01/09 04:34:33;;;;;;;5.70;2.63;;;1.20;99.90;;;;;;5017129;28;20287;-64
2022/01/09 04:37:00;;;;;;;6.20;3.53;;;1.20;99.90;;;;;;5018570;28;20185;-64
2022/01/09 04:39:26;;;;;;;5.93;2.97;;;1.10;99.90;;;;;;5017506;28;20185;-64
2022/01/09 04:41:52;;;;;;;6.00;3.30;;;1.10;99.90;;;;;;5018629;28;20190;-63
2022/01/09 04:44:18;;;;;;;3.43;2.60;;;1.10;99.90;;;;;;5017206;28;20266;-63
2022/01/09 04:46:50;;;;;;;6.43;3.47;;;1.10;99.90;;;;;;5020088;28;20256;-64
2022/01/09 04:49:21;;;;;;;6.23;3.27;;;1.00;99.90;;;;;;5018001;28;21133;-65
2022/01/09 04:51:47;;;;;;;4.53;3.03;;;1.00;99.90;;;;;;5019206;28;20483;-63
2022/01/09 04:54:12;;;;;;;5.70;3.10;;;1.00;99.90;;;;;;5017928;28;20663;-69
2022/01/09 04:56:38;;;;;;;5.73;3.33;;;1.00;99.90;;;;;;5019082;28;20571;-64
2022/01/09 04:59:05;;;;;;;5.27;3.43;;;1.10;99.90;;;;;;5020460;28;20636;-65
2022/01/09 05:01:31;;;;;;;6.33;3.07;;;1.00;99.90;;;;;;5019265;28;20617;-64
2022/01/09 05:03:58;;;;;;;6.83;2.90;;;1.00;99.90;;;;;;5018171;28;20216;-65
2022/01/09 05:06:24;;;;;;;4.87;2.80;;;0.90;99.90;;;;;;5016649;28;20219;-63
2022/01/09 05:08:50;;;;;;;6.10;3.27;;;0.90;99.90;;;;;;5018799;28;20236;-69
2022/01/09 05:11:15;;;;;;;4.07;3.07;;;0.90;99.90;;;;;;5021355;28;20177;-64
2022/01/09 05:13:41;;;;;;;4.53;3.00;;;0.90;99.90;;;;;;5020020;28;20272;-63
2022/01/09 05:16:07;;;;;;;6.43;3.63;;;0.90;99.90;;;;;;5024658;28;20282;-63
2022/01/09 05:18:41;;;;;;;6.97;3.13;;;0.90;99.90;;;;;;5026508;28;20182;-64
2022/01/09 05:21:07;;;;;;;5.73;3.40;;;0.90;99.90;;;;;;5030095;28;20578;-66
2022/01/09 05:23:33;;;;;;;6.80;3.60;;;0.90;99.90;;;;;;5027452;28;20250;-63
2022/01/09 05:25:58;;;;;;;6.97;3.67;;;0.90;99.90;;;;;;5020299;28;20201;-66
2022/01/09 05:28:24;;;;;;;6.97;3.80;;;0.90;99.90;;;;;;5019798;28;20205;-69
2022/01/09 05:30:49;;;;;;;5.07;3.80;;;1.00;99.90;;;;;;5022088;28;20319;-65
2022/01/09 05:33:15;;;;;;;4.73;3.00;;;0.90;99.90;;;;;;5020896;28;20188;-66
2022/01/09 05:35:42;;;;;;;5.63;3.17;;;0.90;99.90;;;;;;5014865;28;20236;-65
2022/01/09 05:38:07;;;;;;;4.47;3.30;;;0.90;99.90;;;;;;5022090;28;20618;-64
2022/01/09 05:40:33;;;;;;;6.20;3.57;;;0.90;99.90;;;;;;5020693;28;20263;-64
2022/01/09 05:42:58;;;;;;;5.37;3.57;;;1.00;99.90;;;;;;5021411;28;20211;-64
2022/01/09 05:45:24;;;;;;;7.50;3.77;;;0.90;99.90;;;;;;5021159;28;20679;-70
2022/01/09 05:47:50;;;;;;;5.87;3.60;;;1.00;99.90;;;;;;5020668;28;20176;-64
2022/01/09 05:50:15;;;;;;;5.90;3.70;;;1.00;99.90;;;;;;5020504;28;20212;-63
2022/01/09 05:52:41;;;;;;;6.37;3.90;;;1.00;99.90;;;;;;5020708;28;20637;-64
2022/01/09 05:55:07;;;;;;;6.87;3.87;;;1.10;99.90;;;;;;5023411;28;20196;-64
2022/01/09 05:57:33;;;;;;;6.10;3.63;;;1.10;99.90;;;;;;5020759;28;20186;-62
2022/01/09 05:59:59;;;;;;;5.63;3.50;;;1.10;99.90;;;;;;5023366;28;20238;-64
2022/01/09 06:02:24;;;;;;;4.30;3.23;;;1.10;99.90;;;;;;5022452;28;20192;-66
2022/01/09 06:04:50;;;;;;;7.70;3.70;;;1.00;99.90;;;;;;5019288;28;20224;-68
2022/01/09 06:07:16;;;;;;;7.87;3.30;;;1.00;99.90;;;;;;5021445;28;20645;-66
2022/01/09 06:09:41;;;;;;;6.30;4.40;;;1.10;99.90;;;;;;5024100;28;20196;-64
2022/01/09 06:12:08;;;;;;;8.93;3.90;;;1.10;99.90;;;;;;5020554;28;20652;-64
2022/01/09 06:14:33;;;;;;;7.03;4.20;;;1.10;99.90;;;;;;5021141;28;20231;-62
2022/01/09 06:16:59;;;;;;;6.67;4.13;;;1.00;99.90;;;;;;5022310;28;20184;-63
2022/01/09 06:19:25;;;;;;;8.80;4.53;;;1.00;99.90;;;;;;5020344;28;20699;-63
2022/01/09 06:21:50;;;;;;;6.77;3.43;;;1.00;99.90;;;;;;5018684;28;20185;-64
2022/01/09 06:24:16;;;;;;;6.47;4.10;;;1.10;99.90;;;;;;5017791;28;20212;-66
2022/01/09 06:26:41;;;;;;;6.77;3.50;;;1.20;99.90;;;;;;5019433;28;20231;-64
2022/01/09 06:29:07;;;;;;;10.73;3.80;;;1.20;99.90;;;;;;5019360;28;20862;-67
2022/01/09 06:31:33;;;;;;;7.80;4.40;;;1.10;99.90;;;;;;5021588;28;20189;-63
2022/01/09 06:33:58;;;;;;;5.77;3.87;;;1.10;99.90;;;;;;5021445;28;20207;-65
2022/01/09 06:36:24;;;;;;;5.33;4.23;;;1.10;99.90;;;;;;5028765;28;20243;-68
2022/01/09 06:38:50;;;;;;;9.47;4.10;;;1.10;99.90;;;;;;5027497;28;20196;-66
2022/01/09 06:41:15;;;;;;;7.67;4.37;;;1.10;99.90;;;;;;5026288;28;20186;-67
2022/01/09 06:43:41;;;;;;;5.63;3.67;;;1.20;99.90;;;;;;5022300;28;20212;-69
2022/01/09 06:46:06;;;;;;;7.83;4.23;;;1.20;99.90;;;;;;5021059;28;20193;-65
2022/01/09 06:48:32;;;;;;;7.73;3.97;;;1.20;99.90;;;;;;5019296;28;20223;-62
2022/01/09 06:50:58;;;;;;;6.47;3.93;;;1.20;99.90;;;;;;5021885;28;20915;-65
2022/01/09 06:53:23;;;;;;;8.07;3.80;;;1.20;99.90;;;;;;5020508;28;20195;-62
2022/01/09 06:55:49;;;;;;;8.13;3.70;;;1.20;99.90;;;;;;5018777;28;20192;-64
2022/01/09 06:58:18;;;;;;;7.13;3.97;;;1.20;99.90;;;;;;5026339;28;20184;-63
2022/01/09 07:00:45;;;;;;;5.47;3.90;;;1.20;99.90;;;;;;5025648;28;20239;-65
2022/01/09 07:03:11;;;;;;;8.73;3.50;;;1.20;99.90;;;;;;5021691;28;20374;-63
2022/01/09 07:05:37;;;;;;;6.23;3.97;;;1.20;99.90;;;;;;5018403;28;20194;-65
2022/01/09 07:08:03;;;;;;;6.07;3.73;;;1.30;99.90;;;;;;5019167;28;20267;-62
2022/01/09 07:10:29;;;;;;;8.30;3.77;;;1.30;99.90;;;;;;5020071;28;20269;-63
2022/01/09 07:12:54;;;;;;;7.50;4.00;;;1.30;99.90;;;;;;5018004;28;20184;-66
2022/01/09 07:15:20;;;;;;;8.47;4.27;;;1.40;99.90;;;;;;5016512;28;20224;-68
2022/01/09 07:17:45;;;;;;;7.53;4.87;;;1.20;99.90;;;;;;5018057;28;20224;-62
2022/01/09 07:20:11;;;;;;;11.00;4.93;;;1.20;99.90;;;;;;5016925;28;20262;-66
2022/01/09 07:22:37;;;;;;;7.53;3.90;;;1.30;99.90;;;;;;5016460;28;20236;-62
2022/01/09 07:25:05;;;;;;;6.40;4.00;;;1.20;99.90;;;;;;5021088;28;20297;-62
2022/01/09 07:27:32;;;;;;;7.40;4.60;;;1.20;99.90;;;;;;5018401;28;20538;-63
2022/01/09 07:29:57;;;;;;;6.37;4.00;;;1.30;99.90;;;;;;5019823;28;20267;-63
2022/01/09 07:32:23;;;;;;;7.03;4.63;;;1.30;99.90;;;;;;5022395;28;20284;-63
2022/01/09 07:34:49;;;;;;;6.07;4.20;;;1.40;99.90;;;;;;5020112;28;20266;-64
2022/01/09 07:37:14;;;;;;;8.57;4.67;;;1.40;99.90;;;;;;5017739;28;20223;-70
2022/01/09 07:39:40;;;;;;;8.73;3.40;;;1.50;99.90;;;;;;5022265;28;20527;-66
2022/01/09 07:42:06;;;;;;;5.80;4.07;;;1.40;99.90;;;;;;5022218;28;20645;-63
2022/01/09 07:44:31;;;;;;;5.00;3.50;;;1.50;99.90;;;;;;5018145;28;20223;-65
2022/01/09 07:46:57;;;;;;;5.47;3.63;;;1.50;99.90;;;;;;5019569;28;20737;-64
2022/01/09 07:49:23;;;;;;;4.90;3.30;;;1.50;99.90;;;;;;5018883;28;20227;-65
2022/01/09 07:51:50;;;;;;;7.40;4.00;;;1.60;99.90;;;;;;5020842;28;20181;-64
2022/01/09 07:54:15;;;;;;;5.47;3.43;;;1.60;99.90;;;;;;5020086;28;20176;-65
2022/01/09 07:56:41;;;;;;;6.23;4.00;;;1.70;99.90;;;;;;5021775;28;20196;-64
2022/01/09 07:59:07;;;;;;;6.63;3.73;;;1.70;99.90;;;;;;5021349;28;20201;-64
2022/01/09 08:01:32;;;;;;;6.40;3.60;;;1.70;99.90;;;;;;5020730;28;20188;-69
2022/01/09 08:03:58;;;;;;;5.70;3.43;;;1.70;99.90;;;;;;5017437;28;20221;-63
2022/01/09 08:06:23;;;;;;;5.03;3.10;;;1.70;99.90;;;;;;5026205;28;20191;-64
2022/01/09 08:08:49;;;;;;;7.60;3.47;;;1.70;99.90;;;;;;5025862;28;20700;-63
2022/01/09 08:11:16;;;;;;;4.87;2.90;;;1.70;99.90;;;;;;5024935;28;20260;-63
2022/01/09 08:13:41;;;;;;;5.80;3.20;;;1.80;99.90;;;;;;5019299;28;20620;-65
2022/01/09 08:16:07;;;;;;;4.37;3.20;;;1.80;99.90;;;;;;5017451;28;20192;-66
2022/01/09 08:18:33;;;;;;;4.20;2.87;;;1.80;99.90;;;;;;5016612;28;20196;-66
2022/01/09 08:20:58;;;;;;;4.20;2.90;;;1.90;99.90;;;;;;5015922;28;20199;-66
2022/01/09 08:23:24;;;;;;;4.23;3.00;;;1.90;99.90;;;;;;5019774;28;20323;-65
2022/01/09 08:25:49;;;;;;;3.90;2.97;;;1.90;99.90;;;;;;5019475;28;20246;-71
2022/01/09 08:28:15;;;;;;;4.20;2.77;;;2.00;99.90;;;;;;5020240;28;20201;-63
2022/01/09 08:30:41;;;;;;;8.63;3.30;;;2.00;99.90;;;;;;5018176;28;20225;-64
2022/01/09 08:33:06;;;;;;;4.47;2.70;;;2.00;99.90;;;;;;5016181;28;20185;-68
2022/01/09 08:35:32;;;;;;;4.53;2.70;;;2.00;99.90;;;;;;5016299;28;20240;-68
2022/01/09 08:37:57;;;;;;;3.77;2.77;;;2.00;99.90;;;;;;5019847;28;20898;-66
2022/01/09 08:40:23;;;;;;;3.83;2.73;;;2.00;99.90;;;;;;5015045;28;20568;-66
2022/01/09 08:42:53;;;;;;;6.43;3.23;;;2.10;99.90;;;;;;5017814;28;20840;-67
2022/01/09 08:45:19;;;;;;;6.00;3.67;;;2.00;99.90;;;;;;5017164;28;20281;-64
2022/01/09 08:47:44;;;;;;;4.90;3.10;;;2.10;99.90;;;;;;5016740;28;20207;-63
2022/01/09 08:50:12;;;;;;;3.60;2.67;;;2.10;99.90;;;;;;5025471;28;20181;-63
2022/01/09 08:52:38;;;;;;;4.13;2.90;;;2.10;99.90;;;;;;5024219;28;20192;-69
2022/01/09 08:55:05;;;;;;;3.47;2.60;;;2.10;99.90;;;;;;5019134;28;24994;-64
2022/01/09 08:57:30;;;;;;;2.93;2.60;;;2.10;99.90;;;;;;5019786;28;20382;-65
2022/01/09 08:59:56;;;;;;;3.37;2.43;;;2.10;99.90;;;;;;5021013;28;20548;-69
2022/01/09 09:02:22;;;;;;;3.77;2.60;;;2.10;99.90;;;;;;5019294;28;20193;-65
2022/01/09 09:04:48;;;;;;;4.53;2.87;;;2.00;99.90;;;;;;5021653;28;20224;-64
2022/01/09 09:07:18;;;;;;;3.27;2.33;;;2.00;99.90;;;;;;5022868;28;20281;-63
2022/01/09 09:09:44;;;;;;;4.33;2.90;;;2.10;99.90;;;;;;5024471;28;20342;-65
2022/01/09 09:12:10;;;;;;;4.43;3.03;;;2.00;99.90;;;;;;5020282;28;20189;-68
2022/01/09 09:14:36;;;;;;;4.23;2.83;;;2.00;99.90;;;;;;5019822;28;20193;-64
2022/01/09 09:17:02;;;;;;;5.70;3.33;;;2.10;99.90;;;;;;5022264;28;20664;-65
2022/01/09 09:19:28;;;;;;;3.17;2.80;;;2.10;99.90;;;;;;5018927;28;21191;-64
2022/01/09 09:21:54;;;;;;;3.90;2.93;;;2.10;99.90;;;;;;5030903;28;20588;-65
2022/01/09 09:24:19;;;;;;;4.25;2.90;;;2.20;99.90;;;;;;5020385;28;20498;-64
2022/01/09 09:26:45;;;;;;;4.40;3.03;;;2.30;99.90;;;;;;5020621;28;20201;-65
2022/01/09 09:29:11;;;;;;;3.47;2.77;;;2.30;99.90;;;;;;5019657;28;20177;-64
2022/01/09 09:31:37;;;;;;;19.63;9.37;;;2.20;99.90;;;;;;5023041;28;20198;-63
2022/01/09 09:34:05;;;;;;;5.40;3.30;;;2.30;99.90;;;;;;5020886;28;20189;-65
2022/01/09 09:36:31;;;;;;;4.10;3.27;;;2.20;99.90;;;;;;5026158;28;20660;-64
2022/01/09 09:38:57;;;;;;;4.90;3.60;;;2.20;99.90;;;;;;5021662;28;20192;-64
2022/01/09 09:41:26;;;;;;;5.67;3.30;;;2.30;99.90;;;;;;5020179;28;20192;-63
2022/01/09 09:43:52;;;;;;;3.63;2.67;;;2.30;99.90;;;;;;5020444;28;20294;-63
2022/01/09 09:46:21;;;;;;;4.10;3.00;;;2.30;99.90;;;;;;5017621;28;20193;-67
2022/01/09 09:48:48;;;;;;;13.13;7.33;;;2.30;99.90;;;;;;5019618;28;21387;-63
2022/01/09 09:51:14;;;;;;;9.87;6.37;;;2.30;99.90;;;;;;5019708;28;20185;-69
2022/01/09 09:53:39;;;;;;;5.40;3.50;;;2.40;99.90;;;;;;5026315;28;20254;-64
2022/01/09 09:56:05;;;;;;;5.77;3.43;;;2.50;99.90;;;;;;5026663;28;20259;-68
2022/01/09 09:58:31;;;;;;;8.83;5.73;;;2.50;99.90;;;;;;5019171;28;20208;-65
2022/01/09 10:00:57;;;;;;;4.90;3.20;;;2.50;99.90;;;;;;5013704;28;20189;-66
2022/01/09 10:03:31;;;;;;;4.27;3.13;;;2.50;99.90;;;;;;5019172;28;20567;-64
2022/01/09 10:05:57;;;;;;;5.50;3.40;;;2.60;99.90;;;;;;5018857;28;20203;-68
2022/01/09 10:08:37;;;;;;;4.17;3.07;;;2.70;99.90;;;;;;5021646;28;20191;-65
2022/01/09 10:11:17;;;;;;;4.67;3.10;;;2.70;99.90;;;;;;5018600;28;20181;-65
2022/01/09 10:13:44;;;;;;;7.47;3.53;;;2.80;99.90;;;;;;5006084;28;20205;-64
2022/01/09 10:16:10;;;;;;;4.60;3.70;;;2.80;99.90;;;;;;5020409;28;20185;-65
2022/01/09 10:18:49;;;;;;;3.80;3.10;;;2.80;99.90;;;;;;5018658;28;20192;-65
2022/01/09 10:21:18;;;;;;;5.97;3.20;;;2.80;99.90;;;;;;5018240;28;20180;-64
2022/01/09 10:24:01;;;;;;;3.53;2.97;;;2.70;99.90;;;;;;5019571;28;20246;-64
2022/01/09 10:26:28;;;;;;;4.17;2.90;;;2.80;99.90;;;;;;5020585;28;20193;-64
2022/01/09 10:28:54;;;;;;;4.47;2.60;;;2.90;99.90;;;;;;5017893;28;20201;-64
2022/01/09 10:31:23;;;;;;;2.83;2.60;;;2.90;99.90;;;;;;5018956;28;20192;-65
2022/01/09 10:34:07;;;;;;;2.93;2.60;;;2.90;99.90;;;;;;5018632;28;20286;-64
2022/01/09 10:36:51;;;;;;;4.40;2.57;;;2.80;99.90;;;;;;5014050;28;20193;-65
2022/01/09 10:39:21;;;;;;;4.93;3.50;;;2.80;99.90;;;;;;5020398;28;20196;-64
2022/01/09 10:41:55;;;;;;;10.27;4.13;;;2.80;99.90;;;;;;5022384;28;20189;-65
2022/01/09 10:44:22;;;;;;;8.90;3.67;;;2.80;99.90;;;;;;5025584;28;20204;-67
2022/01/09 10:47:05;;;;;;;5.93;3.67;;;2.80;99.90;;;;;;5025586;28;20180;-63
2022/01/09 10:49:38;;;;;;;4.60;2.77;;;2.90;99.90;;;;;;5027095;28;20185;-65
2022/01/09 10:52:20;;;;;;;4.97;3.67;;;2.90;99.90;;;;;;5026955;28;20232;-65
2022/01/09 10:54:47;;;;;;;4.07;3.47;;;3.00;99.90;;;;;;5028606;28;20537;-64
2022/01/09 10:57:15;;;;;;;3.53;2.40;;;3.20;99.90;;;;;;5025712;28;20385;-65
2022/01/09 10:59:41;;;;;;;4.10;2.67;;;3.30;99.90;;;;;;5041982;28;20590;-65
2022/01/09 11:02:07;;;;;;;4.23;3.00;;;3.40;99.90;;;;;;5029521;28;20181;-65
2022/01/09 11:04:34;;;;;;;4.73;3.00;;;3.60;99.90;;;;;;5028432;28;20258;-66
2022/01/09 11:07:00;;;;;;;2.27;2.07;;;3.50;99.90;;;;;;5028178;28;20208;-66
2022/01/09 11:09:28;;;;;;;3.70;2.60;;;3.50;99.90;;;;;;5025824;28;20172;-64
2022/01/09 11:11:55;;;;;;;5.67;2.70;;;3.40;99.90;;;;;;5022619;28;20196;-65
2022/01/09 11:14:23;;;;;;;3.07;2.57;;;3.60;99.90;;;;;;5023960;28;20227;-65
2022/01/09 11:16:54;;;;;;;2.50;2.30;;;3.60;99.90;;;;;;5023501;28;20576;-66
2022/01/09 11:19:23;;;;;;;3.13;2.70;;;3.70;99.90;;;;;;5026014;28;20650;-65
2022/01/09 11:21:55;;;;;;;3.10;2.47;;;3.80;99.90;;;;;;5028125;28;20215;-64
2022/01/09 11:25:02;;;;;;;5.00;2.90;;;3.80;99.90;;;;;;5029609;28;20637;-71
2022/01/09 11:27:46;;;;;;;4.17;2.93;;;3.80;99.90;;;;;;5023375;28;20204;-64
2022/01/09 11:30:40;;;;;;;3.23;2.90;;;3.90;99.90;;;;;;5022665;28;20214;-69
2022/01/09 11:33:13;;;;;;;3.43;2.77;;;3.90;99.90;;;;;;5021930;28;20197;-64
2022/01/09 11:35:54;;;;;;;3.83;2.47;;;3.70;99.90;;;;;;5019231;28;20312;-69
2022/01/09 11:38:24;;;;;;;2.50;2.10;;;3.70;99.90;;;;;;5021242;28;20188;-65
2022/01/09 11:40:49;;;;;;;2.33;2.13;;;3.60;99.90;;;;;;5022442;28;20249;-67
2022/01/09 11:43:18;;;;;;;6.17;2.43;;;3.70;99.90;;;;;;5025163;28;20212;-65
2022/01/09 11:45:58;;;;;;;4.67;2.73;;;3.70;99.90;;;;;;5031301;28;20200;-66
2022/01/09 11:49:01;;;;;;;3.57;2.70;;;3.70;99.90;;;;;;5023034;28;20196;-64
2022/01/09 11:51:33;;;;;;;3.30;2.80;;;3.70;99.90;;;;;;5022567;28;20242;-64
2022/01/09 11:54:16;;;;;;;3.53;2.70;;;3.70;99.90;;;;;;5021198;28;20206;-65
2022/01/09 11:56:57;;;;;;;4.03;3.27;;;3.70;99.90;;;;;;5022304;28;20302;-65
2022/01/09 11:59:28;;;;;;;5.77;3.67;;;3.70;99.90;;;;;;5020999;28;20251;-65
2022/01/09 12:01:54;;;;;;;5.17;3.97;;;3.70;99.90;;;;;;5022956;28;20648;-66
2022/01/09 12:04:39;;;;;;;6.47;4.37;;;3.70;99.90;;;;;;5018432;28;20210;-65
2022/01/09 12:07:12;;;;;;;8.70;4.93;;;3.70;99.90;;;;;;5015658;28;20269;-66
2022/01/09 12:09:45;;;;;;;4.77;3.27;;;3.60;99.90;;;;;;5013875;28;20179;-66
2022/01/09 12:12:21;;;;;;;6.93;3.83;;;3.70;99.90;;;;;;5018480;28;20206;-65
2022/01/09 12:15:02;;;;;;;55.73;25.90;;;4.00;99.90;;;;;;5018822;28;20173;-64
2022/01/09 12:17:36;;;;;;;12.00;5.63;;;3.90;99.90;;;;;;5036173;28;20191;-65
2022/01/09 12:20:11;;;;;;;9.23;4.07;;;3.90;99.90;;;;;;5025802;28;20184;-63
2022/01/09 12:22:53;;;;;;;7.17;4.53;;;3.90;99.90;;;;;;5016325;28;20198;-65
2022/01/09 12:25:22;;;;;;;3.97;3.07;;;3.90;99.90;;;;;;5017944;28;20587;-65
2022/01/09 12:27:51;;;;;;;5.70;4.00;;;3.80;99.90;;;;;;5024312;28;20245;-68
2022/01/09 12:33:12;;;;;;;7.03;4.27;;;3.90;99.90;;;;;;5018014;28;20756;-63
2022/01/09 12:35:43;;;;;;;6.83;4.93;;;3.90;99.90;;;;;;4945495;28;2424974;-64
2022/01/09 12:38:14;;;;;;;7.43;5.10;;;4.00;99.90;;;;;;5025075;28;20279;-67
2022/01/09 12:40:41;;;;;;;4.07;2.63;;;3.90;99.90;;;;;;5018015;28;20188;-63
2022/01/09 12:43:07;;;;;;;5.37;3.43;;;3.90;99.90;;;;;;5019326;28;20216;-65
2022/01/09 12:45:36;;;;;;;4.70;3.43;;;3.90;99.90;;;;;;5018665;28;20184;-68
2022/01/09 12:48:05;;;;;;;5.63;3.97;;;3.90;99.90;;;;;;5019605;28;20196;-69
2022/01/09 12:50:34;;;;;;;5.13;3.40;;;4.00;99.90;;;;;;5017628;28;20273;-69
2022/01/09 12:53:18;;;;;;;5.83;4.20;;;3.90;99.90;;;;;;5016622;28;20698;-65
2022/01/09 12:56:20;;;;;;;4.30;3.50;;;4.00;99.90;;;;;;5017517;28;20193;-64
2022/01/09 12:58:52;;;;;;;6.13;4.10;;;4.00;99.90;;;;;;5017735;28;20220;-65
2022/01/09 13:01:26;;;;;;;5.47;4.00;;;4.00;99.90;;;;;;5018095;28;20261;-65
2022/01/09 13:03:56;;;;;;;5.77;4.37;;;4.00;99.90;;;;;;5021591;28;20209;-68